sensor_id;sensor_type;location;lat;lon;timestamp;pressure;altitude;pressure_sealevel;temperature;humidity
28921;BME280;16035;53.594;9.952;2023-09-08T00:01:59;102044.84;;;21.19;55.00
28921;BME280;16035;53.594;9.952;2023-09-08T00:04:00;102044.53;;;21.20;54.78
28921;BME280;16035;53.594;9.952;2023-09-08T00:06:00;102039.00;;;21.20;54.62
28921;BME280;16035;53.594;9.952;2023-09-08T00:08:00;102039.00;;;21.20;54.42
28921;BME280;16035;53.594;9.952;2023-09-08T00:10:01;102047.59;;;21.19;54.33
28921;BME280;16035;53.594;9.952;2023-09-08T00:12:01;102043.50;;;21.16;54.26
28921;BME280;16035;53.594;9.952;2023-09-08T00:14:01;102043.19;;;21.18;54.28
28921;BME280;16035;53.594;9.952;2023-09-08T00:16:03;102044.31;;;21.17;54.08
28921;BME280;16035;53.594;9.952;2023-09-08T00:18:04;102042.97;;;21.14;54.19
28921;BME280;16035;53.594;9.952;2023-09-08T00:20:06;102036.94;;;21.12;54.24
28921;BME280;16035;53.594;9.952;2023-09-08T00:22:09;102038.03;;;21.11;54.04
28921;BME280;16035;53.594;9.952;2023-09-08T00:24:09;102044.09;;;21.13;54.24
28921;BME280;16035;53.594;9.952;2023-09-08T00:26:11;102035.81;;;21.13;54.05
28921;BME280;16035;53.594;9.952;2023-09-08T00:28:11;102039.69;;;21.12;53.98
28921;BME280;16035;53.594;9.952;2023-09-08T00:30:12;102038.34;;;21.10;54.21
28921;BME280;16035;53.594;9.952;2023-09-08T00:32:12;102031.47;;;21.07;54.08
28921;BME280;16035;53.594;9.952;2023-09-08T00:34:12;102028.50;;;21.04;54.17
28921;BME280;16035;53.594;9.952;2023-09-08T00:36:13;102027.16;;;21.01;54.18
28921;BME280;16035;53.594;9.952;2023-09-08T00:38:13;102022.22;;;20.98;54.30
28921;BME280;16035;53.594;9.952;2023-09-08T00:40:13;102023.34;;;20.97;54.12
28921;BME280;16035;53.594;9.952;2023-09-08T00:42:14;102022.00;;;20.94;54.18
28921;BME280;16035;53.594;9.952;2023-09-08T00:44:14;102018.44;;;20.94;54.21
28921;BME280;16035;53.594;9.952;2023-09-08T00:46:15;102019.03;;;20.91;54.27
28921;BME280;16035;53.594;9.952;2023-09-08T00:48:16;102017.41;;;20.90;54.19
28921;BME280;16035;53.594;9.952;2023-09-08T00:50:16;102018.81;;;20.87;54.25
28921;BME280;16035;53.594;9.952;2023-09-08T00:52:17;102016.13;;;20.82;54.19
28921;BME280;16035;53.594;9.952;2023-09-08T00:54:17;102011.72;;;20.81;54.45
28921;BME280;16035;53.594;9.952;2023-09-08T00:56:18;102010.94;;;20.76;54.29
28921;BME280;16035;53.594;9.952;2023-09-08T00:58:18;102013.28;;;20.68;54.67
28921;BME280;16035;53.594;9.952;2023-09-08T01:00:19;102018.06;;;20.63;54.92
28921;BME280;16035;53.594;9.952;2023-09-08T01:02:20;102013.72;;;20.57;54.93
28921;BME280;16035;53.594;9.952;2023-09-08T01:04:21;102016.56;;;20.52;55.04
28921;BME280;16035;53.594;9.952;2023-09-08T01:06:22;102020.47;;;20.45;55.11
28921;BME280;16035;53.594;9.952;2023-09-08T01:08:22;102013.38;;;20.39;55.39
28921;BME280;16035;53.594;9.952;2023-09-08T01:10:23;102017.91;;;20.30;55.47
28921;BME280;16035;53.594;9.952;2023-09-08T01:12:24;102014.41;;;20.25;55.79
28921;BME280;16035;53.594;9.952;2023-09-08T01:14:26;102016.91;;;20.21;55.76
28921;BME280;16035;53.594;9.952;2023-09-08T01:16:27;102016.69;;;20.17;55.81
28921;BME280;16035;53.594;9.952;2023-09-08T01:18:27;102021.44;;;20.12;56.02
28921;BME280;16035;53.594;9.952;2023-09-08T01:20:32;102017.94;;;20.06;56.07
28921;BME280;16035;53.594;9.952;2023-09-08T01:27:07;102020.59;;;19.92;56.39
28921;BME280;16035;53.594;9.952;2023-09-08T01:29:10;102020.91;;;19.86;56.62
28921;BME280;16035;53.594;9.952;2023-09-08T01:31:11;102022.09;;;19.80;56.49
28921;BME280;16035;53.594;9.952;2023-09-08T01:33:12;102025.44;;;19.77;56.89
28921;BME280;16035;53.594;9.952;2023-09-08T01:35:12;102016.91;;;19.73;56.94
28921;BME280;16035;53.594;9.952;2023-09-08T01:37:13;102024.16;;;19.69;57.06
28921;BME280;16035;53.594;9.952;2023-09-08T01:39:14;102013.69;;;19.66;57.12
28921;BME280;16035;53.594;9.952;2023-09-08T01:41:14;102011.25;;;19.64;57.08
28921;BME280;16035;53.594;9.952;2023-09-08T01:43:14;102012.94;;;19.60;57.08
28921;BME280;16035;53.594;9.952;2023-09-08T01:45:14;102009.59;;;19.58;57.39
28921;BME280;16035;53.594;9.952;2023-09-08T01:47:15;102008.47;;;19.59;57.49
28921;BME280;16035;53.594;9.952;2023-09-08T01:49:16;102012.63;;;19.62;57.55
28921;BME280;16035;53.594;9.952;2023-09-08T01:51:16;102007.41;;;19.60;57.28
28921;BME280;16035;53.594;9.952;2023-09-08T01:53:17;102008.22;;;19.61;57.53
28921;BME280;16035;53.594;9.952;2023-09-08T01:55:17;102002.97;;;19.59;57.62
28921;BME280;16035;53.594;9.952;2023-09-08T01:57:18;102004.66;;;19.55;57.60
28921;BME280;16035;53.594;9.952;2023-09-08T01:59:18;102001.38;;;19.53;57.60
28921;BME280;16035;53.594;9.952;2023-09-08T02:01:19;102005.81;;;19.49;57.72
28921;BME280;16035;53.594;9.952;2023-09-08T02:03:19;102005.31;;;19.47;57.96
28921;BME280;16035;53.594;9.952;2023-09-08T02:05:19;101998.44;;;19.44;57.92
28921;BME280;16035;53.594;9.952;2023-09-08T02:07:20;102003.13;;;19.44;57.96
28921;BME280;16035;53.594;9.952;2023-09-08T02:09:20;101994.59;;;19.40;57.88
28921;BME280;16035;53.594;9.952;2023-09-08T02:11:21;101996.84;;;19.38;58.17
28921;BME280;16035;53.594;9.952;2023-09-08T02:13:21;101997.09;;;19.37;58.40
28921;BME280;16035;53.594;9.952;2023-09-08T02:15:21;101996.91;;;19.33;58.62
28921;BME280;16035;53.594;9.952;2023-09-08T02:17:22;101995.53;;;19.31;58.30
28921;BME280;16035;53.594;9.952;2023-09-08T02:19:22;101993.06;;;19.29;58.43
28921;BME280;16035;53.594;9.952;2023-09-08T02:21:23;101988.44;;;19.25;58.59
28921;BME280;16035;53.594;9.952;2023-09-08T02:23:23;101990.13;;;19.21;58.91
28921;BME280;16035;53.594;9.952;2023-09-08T02:25:24;101992.88;;;19.21;58.71
28921;BME280;16035;53.594;9.952;2023-09-08T02:27:24;101994.25;;;19.18;58.57
28921;BME280;16035;53.594;9.952;2023-09-08T02:29:25;102003.94;;;19.10;58.90
28921;BME280;16035;53.594;9.952;2023-09-08T02:31:26;101996.03;;;19.04;58.86
28921;BME280;16035;53.594;9.952;2023-09-08T02:33:27;101986.69;;;19.00;58.88
28921;BME280;16035;53.594;9.952;2023-09-08T02:35:28;101993.31;;;18.99;59.76
28921;BME280;16035;53.594;9.952;2023-09-08T02:37:28;101994.19;;;18.94;59.38
28921;BME280;16035;53.594;9.952;2023-09-08T02:39:29;101998.88;;;18.93;59.23
28921;BME280;16035;53.594;9.952;2023-09-08T02:41:29;101996.38;;;18.92;59.15
28921;BME280;16035;53.594;9.952;2023-09-08T02:43:29;101998.06;;;18.88;59.22
28921;BME280;16035;53.594;9.952;2023-09-08T02:45:30;101997.59;;;18.81;59.33
28921;BME280;16035;53.594;9.952;2023-09-08T02:47:31;102000.38;;;18.76;59.57
28921;BME280;16035;53.594;9.952;2023-09-08T02:49:31;101995.72;;;18.71;59.60
28921;BME280;16035;53.594;9.952;2023-09-08T02:51:31;102002.06;;;18.66;59.73
28921;BME280;16035;53.594;9.952;2023-09-08T02:53:32;101998.75;;;18.64;59.81
28921;BME280;16035;53.594;9.952;2023-09-08T02:55:33;102001.78;;;18.63;59.93
28921;BME280;16035;53.594;9.952;2023-09-08T02:57:33;101999.91;;;18.58;59.64
28921;BME280;16035;53.594;9.952;2023-09-08T02:59:33;101998.81;;;18.54;59.93
28921;BME280;16035;53.594;9.952;2023-09-08T03:01:34;102004.06;;;18.51;60.15
28921;BME280;16035;53.594;9.952;2023-09-08T03:03:34;101996.13;;;18.44;60.14
28921;BME280;16035;53.594;9.952;2023-09-08T03:05:34;101998.63;;;18.40;60.20
28921;BME280;16035;53.594;9.952;2023-09-08T03:07:35;101994.50;;;18.38;60.24
28921;BME280;16035;53.594;9.952;2023-09-08T03:09:37;102001.09;;;18.37;60.33
28921;BME280;16035;53.594;9.952;2023-09-08T03:11:37;101987.63;;;18.35;60.61
28921;BME280;16035;53.594;9.952;2023-09-08T03:13:38;101996.72;;;18.36;60.41
28921;BME280;16035;53.594;9.952;2023-09-08T03:15:38;101992.59;;;18.33;60.52
28921;BME280;16035;53.594;9.952;2023-09-08T03:17:38;101983.50;;;18.33;60.66
28921;BME280;16035;53.594;9.952;2023-09-08T03:19:39;101989.03;;;18.33;60.77
28921;BME280;16035;53.594;9.952;2023-09-08T03:21:39;101983.25;;;18.29;60.80
28921;BME280;16035;53.594;9.952;2023-09-08T03:23:41;101973.66;;;18.27;60.88
28921;BME280;16035;53.594;9.952;2023-09-08T03:25:43;101973.66;;;18.27;60.77
28921;BME280;16035;53.594;9.952;2023-09-08T03:27:43;101981.09;;;18.26;60.96
28921;BME280;16035;53.594;9.952;2023-09-08T03:29:44;101974.19;;;18.24;61.20
28921;BME280;16035;53.594;9.952;2023-09-08T03:31:44;101974.50;;;18.22;60.98
28921;BME280;16035;53.594;9.952;2023-09-08T03:33:44;101978.06;;;18.23;61.23
28921;BME280;16035;53.594;9.952;2023-09-08T03:35:45;101974.75;;;18.21;60.96
28921;BME280;16035;53.594;9.952;2023-09-08T03:37:45;101965.69;;;18.20;61.21
28921;BME280;16035;53.594;9.952;2023-09-08T03:39:45;101968.69;;;18.24;61.22
28921;BME280;16035;53.594;9.952;2023-09-08T03:41:46;101960.44;;;18.24;61.40
28921;BME280;16035;53.594;9.952;2023-09-08T03:43:46;101959.91;;;18.22;61.09
28921;BME280;16035;53.594;9.952;2023-09-08T03:45:49;101962.38;;;18.23;61.24
28921;BME280;16035;53.594;9.952;2023-09-08T03:47:49;101962.91;;;18.25;61.46
28921;BME280;16035;53.594;9.952;2023-09-08T03:49:49;101958.22;;;18.31;61.15
28921;BME280;16035;53.594;9.952;2023-09-08T03:51:50;101963.13;;;18.34;61.28
28921;BME280;16035;53.594;9.952;2023-09-08T03:53:50;101966.41;;;18.41;61.40
28921;BME280;16035;53.594;9.952;2023-09-08T03:55:51;101962.50;;;18.47;61.16
28921;BME280;16035;53.594;9.952;2023-09-08T03:57:51;101958.09;;;18.51;60.98
28921;BME280;16035;53.594;9.952;2023-09-08T03:59:52;101953.13;;;18.53;60.85
28921;BME280;16035;53.594;9.952;2023-09-08T04:01:53;101957.22;;;18.56;60.94
28921;BME280;16035;53.594;9.952;2023-09-08T04:03:53;101955.56;;;18.60;60.87
28921;BME280;16035;53.594;9.952;2023-09-08T04:05:53;101958.84;;;18.62;60.84
28921;BME280;16035;53.594;9.952;2023-09-08T04:07:53;101956.63;;;18.64;60.70
28921;BME280;16035;53.594;9.952;2023-09-08T04:09:54;101955.25;;;18.66;60.22
28921;BME280;16035;53.594;9.952;2023-09-08T04:11:54;101961.28;;;18.68;60.62
28921;BME280;16035;53.594;9.952;2023-09-08T04:13:55;101951.66;;;18.71;60.43
28921;BME280;16035;53.594;9.952;2023-09-08T04:15:55;101952.47;;;18.72;60.36
28921;BME280;16035;53.594;9.952;2023-09-08T04:17:55;101950.00;;;18.70;60.26
28921;BME280;16035;53.594;9.952;2023-09-08T04:19:57;101943.66;;;18.69;60.83
28921;BME280;16035;53.594;9.952;2023-09-08T04:21:57;101945.31;;;18.71;60.24
28921;BME280;16035;53.594;9.952;2023-09-08T04:23:57;101938.72;;;18.66;60.09
28921;BME280;16035;53.594;9.952;2023-09-08T04:25:58;101935.41;;;18.64;60.47
28921;BME280;16035;53.594;9.952;2023-09-08T04:27:58;101939.53;;;18.67;60.45
28921;BME280;16035;53.594;9.952;2023-09-08T04:29:58;101933.47;;;18.70;60.41
28921;BME280;16035;53.594;9.952;2023-09-08T04:31:59;101932.09;;;18.67;60.26
28921;BME280;16035;53.594;9.952;2023-09-08T04:33:59;101938.16;;;18.69;60.34
28921;BME280;16035;53.594;9.952;2023-09-08T04:36:00;101938.72;;;18.72;60.33
28921;BME280;16035;53.594;9.952;2023-09-08T04:38:00;101938.16;;;18.69;60.57
28921;BME280;16035;53.594;9.952;2023-09-08T04:40:01;101936.78;;;18.72;60.23
28921;BME280;16035;53.594;9.952;2023-09-08T04:42:01;101935.66;;;18.73;60.30
28921;BME280;16035;53.594;9.952;2023-09-08T04:44:01;101939.53;;;18.72;60.15
28921;BME280;16035;53.594;9.952;2023-09-08T04:46:02;101938.13;;;18.75;60.32
28921;BME280;16035;53.594;9.952;2023-09-08T04:48:04;101936.44;;;18.79;60.33
28921;BME280;16035;53.594;9.952;2023-09-08T04:50:05;101936.44;;;18.79;60.70
28921;BME280;16035;53.594;9.952;2023-09-08T04:52:05;101928.19;;;18.79;60.10
28921;BME280;16035;53.594;9.952;2023-09-08T04:54:05;101921.59;;;18.80;60.09
28921;BME280;16035;53.594;9.952;2023-09-08T04:56:06;101927.09;;;18.80;60.18
28921;BME280;16035;53.594;9.952;2023-09-08T04:58:06;101924.34;;;18.80;60.14
28921;BME280;16035;53.594;9.952;2023-09-08T05:00:07;101927.63;;;18.82;60.21
28921;BME280;16035;53.594;9.952;2023-09-08T05:02:07;101922.63;;;18.84;60.18
28921;BME280;16035;53.594;9.952;2023-09-08T05:04:08;101928.13;;;18.84;60.06
28921;BME280;16035;53.594;9.952;2023-09-08T05:06:08;101924.03;;;18.81;60.08
28921;BME280;16035;53.594;9.952;2023-09-08T05:08:08;101924.56;;;18.83;60.08
28921;BME280;16035;53.594;9.952;2023-09-08T05:10:09;101925.13;;;18.85;60.05
28921;BME280;16035;53.594;9.952;2023-09-08T05:12:09;101928.69;;;18.86;59.94
28921;BME280;16035;53.594;9.952;2023-09-08T05:14:10;101924.81;;;18.87;60.03
28921;BME280;16035;53.594;9.952;2023-09-08T05:16:10;101929.81;;;18.85;60.09
28921;BME280;16035;53.594;9.952;2023-09-08T05:18:13;101923.47;;;18.84;60.15
28921;BME280;16035;53.594;9.952;2023-09-08T05:20:13;101924.88;;;18.82;60.05
28921;BME280;16035;53.594;9.952;2023-09-08T05:22:14;101921.81;;;18.83;60.05
28921;BME280;16035;53.594;9.952;2023-09-08T05:24:14;101920.41;;;18.86;60.00
28921;BME280;16035;53.594;9.952;2023-09-08T05:26:14;101921.81;;;18.83;59.97
28921;BME280;16035;53.594;9.952;2023-09-08T05:28:15;101919.88;;;18.84;60.20
28921;BME280;16035;53.594;9.952;2023-09-08T05:30:15;101923.69;;;18.88;60.02
28921;BME280;16035;53.594;9.952;2023-09-08T05:32:15;101924.50;;;18.88;60.15
28921;BME280;16035;53.594;9.952;2023-09-08T05:34:16;101919.84;;;18.89;59.93
28921;BME280;16035;53.594;9.952;2023-09-08T05:36:16;101930.56;;;18.90;60.18
28921;BME280;16035;53.594;9.952;2023-09-08T05:38:17;101919.00;;;18.93;60.03
28921;BME280;16035;53.594;9.952;2023-09-08T05:40:17;101917.31;;;18.98;59.97
28921;BME280;16035;53.594;9.952;2023-09-08T05:42:18;101918.34;;;19.02;60.07
28921;BME280;16035;53.594;9.952;2023-09-08T05:44:19;101921.66;;;19.04;59.80
28921;BME280;16035;53.594;9.952;2023-09-08T05:46:20;101916.66;;;19.06;60.08
28921;BME280;16035;53.594;9.952;2023-09-08T05:48:20;101913.34;;;19.09;60.11
28921;BME280;16035;53.594;9.952;2023-09-08T05:50:20;101907.25;;;19.12;59.78
28921;BME280;16035;53.594;9.952;2023-09-08T05:52:21;101908.31;;;19.16;60.20
28921;BME280;16035;53.594;9.952;2023-09-08T05:54:21;101905.50;;;19.21;59.94
28921;BME280;16035;53.594;9.952;2023-09-08T05:56:24;101897.25;;;19.21;59.80
28921;BME280;16035;53.594;9.952;2023-09-08T05:58:26;101902.75;;;19.21;59.87
28921;BME280;16035;53.594;9.952;2023-09-08T06:00:27;101909.06;;;19.22;59.82
28921;BME280;16035;53.594;9.952;2023-09-08T06:02:27;101914.00;;;19.25;59.86
28921;BME280;16035;53.594;9.952;2023-09-08T06:04:28;101906.81;;;19.29;59.82
28921;BME280;16035;53.594;9.952;2023-09-08T06:06:28;101915.03;;;19.34;59.81
28921;BME280;16035;53.594;9.952;2023-09-08T06:08:29;101910.28;;;19.39;59.72
28921;BME280;16035;53.594;9.952;2023-09-08T06:10:29;101912.66;;;19.46;59.62
28921;BME280;16035;53.594;9.952;2023-09-08T06:12:30;101915.66;;;19.50;59.53
28921;BME280;16035;53.594;9.952;2023-09-08T06:14:31;101913.44;;;19.52;59.36
28921;BME280;16035;53.594;9.952;2023-09-08T06:16:31;101918.66;;;19.53;59.52
28921;BME280;16035;53.594;9.952;2023-09-08T06:18:31;101915.03;;;19.58;59.56
28921;BME280;16035;53.594;9.952;2023-09-08T06:20:32;101927.44;;;19.60;59.49
28921;BME280;16035;53.594;9.952;2023-09-08T06:22:32;101925.22;;;19.62;59.55
28921;BME280;16035;53.594;9.952;2023-09-08T06:24:32;101919.34;;;19.69;59.42
28921;BME280;16035;53.594;9.952;2023-09-08T06:26:33;101924.50;;;19.76;59.41
28921;BME280;16035;53.594;9.952;2023-09-08T06:28:33;101923.63;;;19.80;59.49
28921;BME280;16035;53.594;9.952;2023-09-08T06:30:34;101927.13;;;19.86;59.59
28921;BME280;16035;53.594;9.952;2023-09-08T06:32:34;101924.28;;;19.91;59.28
28921;BME280;16035;53.594;9.952;2023-09-08T06:34:34;101918.75;;;19.96;59.41
28921;BME280;16035;53.594;9.952;2023-09-08T06:36:35;101919.78;;;20.00;59.12
28921;BME280;16035;53.594;9.952;2023-09-08T06:38:36;101917.25;;;20.04;59.18
28921;BME280;16035;53.594;9.952;2023-09-08T06:40:36;101921.88;;;20.08;58.97
28921;BME280;16035;53.594;9.952;2023-09-08T06:42:37;101922.09;;;20.12;59.03
28921;BME280;16035;53.594;9.952;2023-09-08T06:44:37;101924.88;;;20.12;59.10
28921;BME280;16035;53.594;9.952;2023-09-08T06:46:37;101919.28;;;20.17;58.93
28921;BME280;16035;53.594;9.952;2023-09-08T06:48:38;101919.81;;;20.19;59.37
28921;BME280;16035;53.594;9.952;2023-09-08T06:50:38;101920.25;;;20.26;59.03
28921;BME280;16035;53.594;9.952;2023-09-08T06:52:38;101926.00;;;20.30;58.81
28921;BME280;16035;53.594;9.952;2023-09-08T06:54:39;101915.19;;;20.33;58.76
28921;BME280;16035;53.594;9.952;2023-09-08T06:56:39;101920.94;;;20.37;58.68
28921;BME280;16035;53.594;9.952;2023-09-08T06:58:39;101920.31;;;20.40;58.65
28921;BME280;16035;53.594;9.952;2023-09-08T07:00:40;101918.00;;;20.47;58.75
28921;BME280;16035;53.594;9.952;2023-09-08T07:02:40;101924.84;;;20.55;58.62
28921;BME280;16035;53.594;9.952;2023-09-08T07:04:41;101921.41;;;20.63;58.79
28921;BME280;16035;53.594;9.952;2023-09-08T07:06:41;101912.72;;;20.69;58.60
28921;BME280;16035;53.594;9.952;2023-09-08T07:08:43;101919.19;;;20.79;58.57
28921;BME280;16035;53.594;9.952;2023-09-08T07:10:44;101916.88;;;20.86;58.28
28921;BME280;16035;53.594;9.952;2023-09-08T07:12:44;101915.66;;;20.92;58.29
28921;BME280;16035;53.594;9.952;2023-09-08T07:14:45;101916.81;;;21.05;58.05
28921;BME280;16035;53.594;9.952;2023-09-08T07:16:45;101915.31;;;21.12;57.93
28921;BME280;16035;53.594;9.952;2023-09-08T07:18:45;101913.88;;;21.15;57.78
28921;BME280;16035;53.594;9.952;2023-09-08T07:20:47;101919.41;;;21.29;57.85
28921;BME280;16035;53.594;9.952;2023-09-08T07:22:48;101921.63;;;21.59;57.44
28921;BME280;16035;53.594;9.952;2023-09-08T07:24:48;101914.25;;;21.82;56.99
28921;BME280;16035;53.594;9.952;2023-09-08T07:26:48;101906.97;;;21.86;56.48
28921;BME280;16035;53.594;9.952;2023-09-08T07:28:49;101916.19;;;21.82;56.48
28921;BME280;16035;53.594;9.952;2023-09-08T07:30:49;101913.75;;;21.80;56.56
28921;BME280;16035;53.594;9.952;2023-09-08T07:32:49;101910.38;;;21.83;56.94
28921;BME280;16035;53.594;9.952;2023-09-08T07:34:50;101919.66;;;21.87;56.51
28921;BME280;16035;53.594;9.952;2023-09-08T07:36:55;101913.00;;;22.02;56.83
28921;BME280;16035;53.594;9.952;2023-09-08T07:38:55;101907.56;;;22.25;56.44
28921;BME280;16035;53.594;9.952;2023-09-08T07:40:55;101907.88;;;22.45;56.19
28921;BME280;16035;53.594;9.952;2023-09-08T07:42:55;101912.31;;;22.69;55.63
28921;BME280;16035;53.594;9.952;2023-09-08T07:44:56;101913.03;;;22.97;55.37
28921;BME280;16035;53.594;9.952;2023-09-08T07:46:56;101903.00;;;23.10;55.07
28921;BME280;16035;53.594;9.952;2023-09-08T07:48:58;101907.59;;;23.14;54.93
28921;BME280;16035;53.594;9.952;2023-09-08T07:50:59;101902.09;;;23.23;54.94
28921;BME280;16035;53.594;9.952;2023-09-08T07:53:00;101899.34;;;23.32;54.72
28921;BME280;16035;53.594;9.952;2023-09-08T07:55:00;101899.34;;;23.32;54.34
28921;BME280;16035;53.594;9.952;2023-09-08T07:57:00;101899.03;;;23.33;54.58
28921;BME280;16035;53.594;9.952;2023-09-08T07:59:01;101905.56;;;23.37;54.48
28921;BME280;16035;53.594;9.952;2023-09-08T08:01:01;101900.69;;;23.43;54.58
28921;BME280;16035;53.594;9.952;2023-09-08T08:03:01;101901.53;;;23.52;54.44
28921;BME280;16035;53.594;9.952;2023-09-08T08:05:02;101904.25;;;23.75;54.17
28921;BME280;16035;53.594;9.952;2023-09-08T08:07:03;101906.13;;;24.05;53.59
28921;BME280;16035;53.594;9.952;2023-09-08T08:09:03;101908.75;;;24.19;53.21
28921;BME280;16035;53.594;9.952;2023-09-08T08:11:12;101914.81;;;24.12;52.88
28921;BME280;16035;53.594;9.952;2023-09-08T08:13:12;101912.69;;;24.18;53.22
28921;BME280;16035;53.594;9.952;2023-09-08T08:15:13;101905.38;;;24.39;53.25
28921;BME280;16035;53.594;9.952;2023-09-08T08:17:13;101903.59;;;24.52;52.39
28921;BME280;16035;53.594;9.952;2023-09-08T08:19:13;101903.59;;;24.52;52.42
28921;BME280;16035;53.594;9.952;2023-09-08T08:21:14;101905.84;;;24.50;52.33
28921;BME280;16035;53.594;9.952;2023-09-08T08:23:14;101902.25;;;24.58;52.29
28921;BME280;16035;53.594;9.952;2023-09-08T08:25:15;101904.69;;;24.86;52.12
28921;BME280;16035;53.594;9.952;2023-09-08T08:27:15;101907.25;;;25.17;51.69
28921;BME280;16035;53.594;9.952;2023-09-08T08:29:16;101906.31;;;25.51;51.06
28921;BME280;16035;53.594;9.952;2023-09-08T08:31:16;101898.78;;;25.52;50.22
28921;BME280;16035;53.594;9.952;2023-09-08T08:33:16;101907.59;;;25.54;50.87
28921;BME280;16035;53.594;9.952;2023-09-08T08:35:17;101909.41;;;25.88;51.10
28921;BME280;16035;53.594;9.952;2023-09-08T08:37:18;101903.38;;;26.69;50.73
28921;BME280;16035;53.594;9.952;2023-09-08T08:39:18;101894.19;;;27.72;49.62
28921;BME280;16035;53.594;9.952;2023-09-08T08:41:18;101894.41;;;28.88;47.85
28921;BME280;16035;53.594;9.952;2023-09-08T08:43:19;101897.72;;;29.85;46.50
28921;BME280;16035;53.594;9.952;2023-09-08T08:45:25;101882.94;;;30.62;45.23
28921;BME280;16035;53.594;9.952;2023-09-08T08:47:29;101885.28;;;31.44;44.74
28921;BME280;16035;53.594;9.952;2023-09-08T08:49:31;101870.59;;;32.08;42.05
28921;BME280;16035;53.594;9.952;2023-09-08T08:51:34;101880.97;;;32.04;40.75
28921;BME280;16035;53.594;9.952;2023-09-08T08:53:37;101882.13;;;31.99;39.45
28921;BME280;16035;53.594;9.952;2023-09-08T08:55:38;101887.94;;;32.13;39.51
28921;BME280;16035;53.594;9.952;2023-09-08T08:57:38;101881.97;;;32.18;38.71
28921;BME280;16035;53.594;9.952;2023-09-08T08:59:39;101885.06;;;33.11;39.11
28921;BME280;16035;53.594;9.952;2023-09-08T09:01:42;101886.63;;;33.49;38.03
28921;BME280;16035;53.594;9.952;2023-09-08T09:03:43;101885.22;;;33.80;38.00
28921;BME280;16035;53.594;9.952;2023-09-08T09:05:44;101882.13;;;34.03;36.61
28921;BME280;16035;53.594;9.952;2023-09-08T09:07:44;101872.22;;;33.17;34.17
28921;BME280;16035;53.594;9.952;2023-09-08T09:09:45;101885.00;;;33.07;36.22
28921;BME280;16035;53.594;9.952;2023-09-08T09:11:45;101875.28;;;32.60;35.75
28921;BME280;16035;53.594;9.952;2023-09-08T09:13:45;101881.88;;;32.41;37.27
28921;BME280;16035;53.594;9.952;2023-09-08T09:15:45;101875.41;;;31.54;36.86
28921;BME280;16035;53.594;9.952;2023-09-08T09:18:02;101885.16;;;30.91;38.09
28921;BME280;16035;53.594;9.952;2023-09-08T09:20:17;101880.66;;;30.09;38.00
28921;BME280;16035;53.594;9.952;2023-09-08T09:22:20;101886.66;;;29.57;40.43
28921;BME280;16035;53.594;9.952;2023-09-08T09:24:42;101878.59;;;29.08;40.05
28921;BME280;16035;53.594;9.952;2023-09-08T09:26:45;101880.53;;;28.91;41.56
28921;BME280;16035;53.594;9.952;2023-09-08T09:28:48;101877.56;;;28.56;40.71
28921;BME280;16035;53.594;9.952;2023-09-08T09:30:52;101876.31;;;28.98;42.21
28921;BME280;16035;53.594;9.952;2023-09-08T09:33:02;101870.53;;;29.54;41.22
28921;BME280;16035;53.594;9.952;2023-09-08T09:35:02;101870.44;;;30.36;40.94
28921;BME280;16035;53.594;9.952;2023-09-08T09:37:04;101864.25;;;31.12;39.56
28921;BME280;16035;53.594;9.952;2023-09-08T09:39:05;101862.88;;;31.25;38.46
28921;BME280;16035;53.594;9.952;2023-09-08T09:41:05;101872.81;;;30.96;37.51
28921;BME280;16035;53.594;9.952;2023-09-08T09:43:07;101861.69;;;31.49;38.89
28921;BME280;16035;53.594;9.952;2023-09-08T09:45:08;101860.50;;;31.77;38.42
28921;BME280;16035;53.594;9.952;2023-09-08T09:47:09;101858.38;;;31.96;38.42
28921;BME280;16035;53.594;9.952;2023-09-08T09:49:10;101860.38;;;31.43;35.56
28921;BME280;16035;53.594;9.952;2023-09-08T09:51:18;101857.22;;;31.71;37.49
28921;BME280;16035;53.594;9.952;2023-09-08T09:53:20;101861.28;;;32.34;37.99
28921;BME280;16035;53.594;9.952;2023-09-08T09:55:20;101856.94;;;32.77;37.22
28921;BME280;16035;53.594;9.952;2023-09-08T09:57:21;101849.19;;;33.04;35.48
28921;BME280;16035;53.594;9.952;2023-09-08T09:59:22;101847.44;;;33.95;36.47
28921;BME280;16035;53.594;9.952;2023-09-08T10:01:24;101846.88;;;34.56;35.06
28921;BME280;16035;53.594;9.952;2023-09-08T10:03:25;101843.69;;;34.89;34.83
28921;BME280;16035;53.594;9.952;2023-09-08T10:05:27;101842.53;;;35.37;34.25
28921;BME280;16035;53.594;9.952;2023-09-08T10:07:27;101827.47;;;35.83;33.69
28921;BME280;16035;53.594;9.952;2023-09-08T10:09:28;101833.94;;;35.90;32.59
28921;BME280;16035;53.594;9.952;2023-09-08T10:11:29;101834.97;;;36.36;32.85
28921;BME280;16035;53.594;9.952;2023-09-08T10:13:39;101839.16;;;36.80;32.28
28921;BME280;16035;53.594;9.952;2023-09-08T10:15:41;101840.31;;;36.86;31.77
28921;BME280;16035;53.594;9.952;2023-09-08T10:17:44;101844.75;;;36.83;31.56
28921;BME280;16035;53.594;9.952;2023-09-08T10:19:45;101836.53;;;37.07;31.36
28921;BME280;16035;53.594;9.952;2023-09-08T10:21:50;101840.81;;;37.26;30.82
28921;BME280;16035;53.594;9.952;2023-09-08T10:23:59;101837.50;;;37.31;29.76
28921;BME280;16035;53.594;9.952;2023-09-08T10:26:06;101838.09;;;37.56;30.96
28921;BME280;16035;53.594;9.952;2023-09-08T10:28:09;101835.44;;;37.76;30.42
28921;BME280;16035;53.594;9.952;2023-09-08T10:30:11;101830.81;;;37.93;30.83
28921;BME280;16035;53.594;9.952;2023-09-08T10:32:11;101826.31;;;37.96;30.04
28921;BME280;16035;53.594;9.952;2023-09-08T10:34:13;101826.63;;;37.67;30.58
28921;BME280;16035;53.594;9.952;2023-09-08T10:36:13;101819.72;;;37.27;30.57
28921;BME280;16035;53.594;9.952;2023-09-08T10:38:23;101823.78;;;36.77;29.78